Airfield :
LOGIN :

Register | Disclaimer

   EN    FR    IT 

 










Legend :    VFR   Marginal VFR   IFR   Intensive IFR   Very Intensive IFR
Visi :
Ceiling :
>= 8 km
>= 3000ft
5 to 8 km
1000 to 3000 ft
1500m to 5 km
500 to 1000 ft
800 to 1500m
200 to 500 ft
< 800m
< 200 ft
Symbols :   Thunderstorms  Fog  Heavy snow  Heavy precipitations  Wind > 20 kt
SIGMETs :     Misc.  Thunderstorms  Icing  Turbulence  Mountain Waves  Volcanic Ashes







- Airport Elevation : 935 ft


EBFS - Florennes

CURRENT METAR :
  • 262203Z AUTO 21009KT 9999 SCT010/// BKN037/// OVC055/// 14/12 Q1013 GRN

EXPIRED METARs :
  • 262138Z AUTO 20010KT 9999 OVC000/// 14/11 Q1013 RED
  • 262055Z AUTO 20008KT 9999 SCT030/// BKN035/// BKN150/// 14/11 Q1013 BLU
  • 262025Z AUTO 21008KT 9999 FEW024/// BKN220/// 14/11 Q1013 BLU
  • 262023Z AUTO 22008KT 9999 FEW021/// BKN210/// 14/11 Q1013 BLU
  • 261955Z AUTO 22009KT 9999 SCT017/// BKN020/// OVC220/// 14/11 Q1013 WHT
  • 261938Z AUTO 22009KT 9999 SCT018/// BKN043/// BKN220/// 15/11 Q1013 WHT
  • 261925Z AUTO 22009KT 9999 SCT036/// BKN050/// BKN150/// 15/11 Q1013 BLU
  • 261855Z AUTO 22008KT 9999 BKN038/// BKN045/// OVC070/// 15/11 Q1013 BLU

Expired Forecast.
No reported NOTAMs for that airfield.



MET'MAP, your aeronautical weather chart ! - Copyright ORBIFLY December 2007 - Disclaimer

ORBIFLY MET'MAP TEAM :

Programming & Development : Alexandra Zaïnal
Concept & Development : Baudouin d'Aumeries
Co-Development & Prog : Marc-Olivier Méhu
Technical & hardware support : Manuel Goepfert

Contact : metmap@orbifly.com




SOURCES & CREDITS :

   NOAA